小松飛行場の過去48時間の天気

小松飛行場 (Kanazawa/Komatsu)

現在時刻: 1/23 12:28 JST (1/23 03:28 UTC) 以下の時間は現地時間です。

過去48時間のMETAR気象情報
時間 風向 風速(m/s) 視程 気温(℃) 湿度(%) 気圧(hPa) 天気現象
23 12:00 南南東 2 3500m 10 87 1019 弱いしゅう雨 もや
23 11:00 不定 1 8000m 10 94 1020 弱い雨
23 10:00 北東 2 10km以上 10 87 1019 弱い雨
23 09:00 2 10km以上 9 93 1019 弱い雨
23 08:00 東北東 3 8000m 8 93 1021 弱い雨
23 07:00 東北東 2 5000m 7 93 1022 弱い雨 もや
23 06:00 1 6000m 7 93 1022 弱い雨
23 05:00 南南東 1 8000m 7 93 1022 弱い雨
23 04:00 静穏 0 10km以上 7 93 1022 弱い雨
23 03:00 不定 1 10km以上 7 93 1023 弱い雨
23 02:00 南東 2 10km以上 7 93 1023 弱い雨
23 01:00 南南東 3 10km以上 7 87 1024 弱い雨
23 00:00 南東 2 10km以上 7 87 1025 弱い雨
22 23:00 南東 1 10km以上 8 81 1026 弱い雨
22 22:00 南南東 2 10km以上 8 76 1026 弱い雨
22 21:00 3 10km以上 9 66 1026 弱い雨
22 20:00 6 10km以上 10 54 1026 弱い雨
22 19:00 南南東 2 10km以上 9 62 1026 弱い雨
22 18:00 2 10km以上 9 62 1025
22 17:00 不定 1 10km以上 9 62 1025
22 16:00 南南東 2 10km以上 9 57 1025
22 15:00 南東 2 10km以上 8 57 1025
22 14:00 南東 2 10km以上 8 57 1025
22 13:00 北西 2 10km以上 7 57 1026
22 12:00 不定 1 10km以上 7 53 1026
22 11:00 不定 1 10km以上 6 61 1027
22 10:00 不定 1 10km以上 4 70 1028
22 09:00 不定 1 10km以上 1 86 1028
22 08:00 不定 1 10km以上 0 80 1029
22 07:00 南東 2 10km以上 -1 86 1029
22 06:00 東南東 2 10km以上 -2 86 1029
22 05:00 南東 2 10km以上 -1 86 1029
22 04:00 東南東 1 10km以上 -2 86 1029
22 03:00 2 10km以上 -1 86 1029
22 02:00 東南東 3 10km以上 0 80 1030
22 01:00 東南東 2 10km以上 -1 86 1030
22 00:00 2 10km以上 0 86 1030
21 23:00 東南東 2 10km以上 0 86 1030
21 22:00 東南東 2 10km以上 1 80 1030
21 21:00 南東 2 10km以上 2 81 1030
21 20:00 2 10km以上 3 75 1030
21 19:00 2 10km以上 3 70 1029
21 18:00 3 10km以上 4 65 1029
21 17:00 東北東 4 10km以上 5 65 1028
21 16:00 5 10km以上 6 57 1028
21 15:00 6 10km以上 6 61 1028
21 14:00 3 10km以上 6 57 1027
21 13:00 北東 2 10km以上 4 81 1027
RJNK 230300Z 16003KT 3500 -SHRA BR FEW004 SCT015 BKN030 10/08 Q1019
RJNK 230200Z VRB02KT 8000 -RA FEW010 SCT030 OVC040 10/09 Q1020
RJNK 230100Z 04003KT 360V090 9999 -RA FEW010 BKN070 OVC100 10/08 Q1019
RJNK 230000Z 08004KT 050V110 9999 -RA FEW050 BKN070 OVC100 09/08 Q1019
RJNK 222300Z 07005KT 8000 -RA FEW040 SCT050 OVC070 08/07 Q1021
RJNK 222200Z 06004KT 5000 -RA BR FEW030 BKN050 OVC070 07/06 Q1022
RJNK 222100Z 10002KT 6000 -RA FEW030 BKN050 OVC070 07/06 Q1022
RJNK 222000Z 16002KT 8000 -RA FEW030 BKN050 OVC070 07/06 Q1022
RJNK 221900Z 00000KT 9999 -RA FEW030 BKN050 OVC070 07/06 Q1022
RJNK 221800Z VRB01KT 9999 -RA FEW030 BKN050 OVC070 07/06 Q1023
RJNK 221700Z 14004KT 9999 -RA FEW020 BKN050 OVC070 07/06 Q1023
RJNK 221600Z 15006KT 9999 -RA FEW020 BKN050 BKN070 07/05 Q1024
RJNK 221500Z 13003KT 9999 -RA FEW020 SCT030 BKN050 07/05 Q1025
RJNK 221400Z 14002KT 9999 -RA FEW020 SCT030 BKN050 08/05 Q1026
RJNK 221300Z 15003KT 110V180 9999 -RA FEW030 BKN050 OVC070 08/04 Q1026
RJNK 221200Z 18005KT 9999 -RA FEW030 BKN050 BKN070 09/03 Q1026
RJNK 221100Z 17012KT 9999 -RA FEW030 BKN050 BKN070 10/01 Q1026
RJNK 221000Z 15004KT 130V200 9999 -RA SCT050 BKN070 OVC100 09/02 Q1026
RJNK 220900Z 17003KT 140V200 9999 BKN100 BKN120 09/02 Q1025
RJNK 220800Z VRB02KT 9999 FEW100 BKN120 BKN150 09/02 Q1025
RJNK 220700Z 16003KT 120V190 9999 FEW100 BKN120 BKN150 09/01 Q1025
RJNK 220600Z 14003KT 100V180 9999 SCT120 BKN150 BKN180 08/M00 Q1025
RJNK 220500Z 14004KT 100V210 9999 FEW120 BKN150 BKN180 08/M00 Q1025
RJNK 220400Z 31004KT 260V350 9999 FEW120 BKN150 BKN180 07/M01 Q1026
RJNK 220300Z VRB02KT 9999 FEW050 SCT150 BKN180 07/M02 Q1026
RJNK 220200Z VRB01KT 9999 FEW050 BKN180 06/M01 Q1027
RJNK 220100Z VRB01KT 9999 FEW050 SCT180 BKN230 04/M01 Q1028
RJNK 220000Z VRB02KT 9999 FEW050 SCT180 BKN230 01/M01 Q1028
RJNK 212300Z VRB02KT 9999 FEW050 SCT150 BKN230 M00/M03 Q1029
RJNK 212200Z 14003KT 9999 FEW050 SCT180 M01/M03 Q1029
RJNK 212100Z 12003KT 9999 FEW050 BKN180 M02/M04 Q1029
RJNK 212000Z 13003KT 100V170 9999 FEW050 SCT180 M01/M03 Q1029
RJNK 211900Z 11002KT 9999 FEW050 SCT180 M02/M04 Q1029
RJNK 211800Z 17003KT 9999 FEW050 M01/M03 Q1029
RJNK 211700Z 12005KT 9999 FEW050 00/M03 Q1030
RJNK 211600Z 11004KT 9999 FEW050 M01/M03 Q1030
RJNK 211500Z 18003KT 9999 FEW030 M00/M02 Q1030
RJNK 211400Z 11003KT 9999 FEW030 00/M02 Q1030
RJNK 211300Z 11003KT 9999 FEW030 SCT050 01/M02 Q1030
RJNK 211200Z 13003KT 9999 FEW030 BKN050 02/M01 Q1030
RJNK 211100Z 09003KT 9999 FEW030 BKN050 03/M01 Q1030
RJNK 211000Z 09003KT 050V110 9999 FEW015 BKN050 03/M02 Q1029
RJNK 210900Z 10005KT 9999 FEW015 BKN050 04/M02 Q1029
RJNK 210800Z 07008KT 9999 FEW015 SCT030 BKN050 05/M01 Q1028
RJNK 210700Z 01010KT 9999 FEW015 SCT030 BKN050 06/M02 Q1028
RJNK 210600Z 01011KT 9999 FEW015 SCT030 BKN050 06/M01 Q1028
RJNK 210500Z 36006KT 9999 FEW015 SCT030 BKN050 06/M02 Q1027
RJNK 210400Z 04003KT 350V110 9999 FEW015 SCT030 BKN050 04/01 Q1027